sensor_id;sensor_type;location;lat;lon;timestamp;pressure;altitude;pressure_sealevel;temperature;humidity
44148;BME280;29810;55.848;37.368;2023-05-01T00:01:49;98226.03;;;5.79;100.00
44148;BME280;29810;55.848;37.368;2023-05-01T00:04:51;98219.41;;;5.71;100.00
44148;BME280;29810;55.848;37.368;2023-05-01T00:07:53;98217.69;;;5.71;100.00
44148;BME280;29810;55.848;37.368;2023-05-01T00:10:54;98210.63;;;5.75;100.00
44148;BME280;29810;55.848;37.368;2023-05-01T00:13:55;98219.84;;;5.84;100.00
44148;BME280;29810;55.848;37.368;2023-05-01T00:16:57;98218.37;;;5.76;100.00
44148;BME280;29810;55.848;37.368;2023-05-01T00:19:58;98209.50;;;5.84;100.00
44148;BME280;29810;55.848;37.368;2023-05-01T00:22:59;98220.09;;;5.76;100.00
44148;BME280;29810;55.848;37.368;2023-05-01T00:26:00;98218.13;;;5.84;100.00
44148;BME280;29810;55.848;37.368;2023-05-01T00:29:02;98224.87;;;5.88;100.00
44148;BME280;29810;55.848;37.368;2023-05-01T00:32:03;98230.53;;;6.00;100.00
44148;BME280;29810;55.848;37.368;2023-05-01T00:35:05;98238.38;;;5.98;100.00
44148;BME280;29810;55.848;37.368;2023-05-01T00:38:07;98234.91;;;5.97;100.00
44148;BME280;29810;55.848;37.368;2023-05-01T00:41:08;98242.59;;;6.01;100.00
44148;BME280;29810;55.848;37.368;2023-05-01T00:44:09;98229.88;;;5.93;100.00
44148;BME280;29810;55.848;37.368;2023-05-01T00:47:11;98230.59;;;5.98;100.00
44148;BME280;29810;55.848;37.368;2023-05-01T00:50:12;98234.28;;;5.91;100.00
44148;BME280;29810;55.848;37.368;2023-05-01T00:53:14;98217.19;;;5.85;100.00
44148;BME280;29810;55.848;37.368;2023-05-01T00:56:15;98207.91;;;5.79;100.00
44148;BME280;29810;55.848;37.368;2023-05-01T00:59:17;98203.13;;;5.67;100.00
44148;BME280;29810;55.848;37.368;2023-05-01T01:02:18;98207.47;;;5.67;100.00
44148;BME280;29810;55.848;37.368;2023-05-01T01:05:20;98208.09;;;5.73;100.00
44148;BME280;29810;55.848;37.368;2023-05-01T01:08:25;98207.34;;;5.71;100.00
44148;BME280;29810;55.848;37.368;2023-05-01T01:11:35;98204.94;;;5.65;100.00
44148;BME280;29810;55.848;37.368;2023-05-01T01:14:39;98225.44;;;5.71;100.00
44148;BME280;29810;55.848;37.368;2023-05-01T01:17:49;98231.88;;;5.85;100.00
44148;BME280;29810;55.848;37.368;2023-05-01T01:21:11;98238.84;;;5.83;100.00
44148;BME280;29810;55.848;37.368;2023-05-01T01:27:57;98261.09;;;6.15;100.00
44148;BME280;29810;55.848;37.368;2023-05-01T01:37:54;98247.63;;;6.30;100.00
44148;BME280;29810;55.848;37.368;2023-05-01T01:40:53;98226.38;;;6.46;100.00
44148;BME280;29810;55.848;37.368;2023-05-01T01:44:15;98213.88;;;6.57;100.00
44148;BME280;29810;55.848;37.368;2023-05-01T01:47:21;98197.88;;;6.22;100.00
44148;BME280;29810;55.848;37.368;2023-05-01T01:50:24;98198.22;;;6.11;100.00
44148;BME280;29810;55.848;37.368;2023-05-01T01:53:27;98202.56;;;6.11;100.00
44148;BME280;29810;55.848;37.368;2023-05-01T01:56:30;98192.34;;;6.08;100.00
44148;BME280;29810;55.848;37.368;2023-05-01T01:59:33;98196.31;;;6.17;100.00
44148;BME280;29810;55.848;37.368;2023-05-01T02:02:36;98199.72;;;6.19;100.00
44148;BME280;29810;55.848;37.368;2023-05-01T02:05:39;98212.38;;;6.26;100.00
44148;BME280;29810;55.848;37.368;2023-05-01T02:08:42;98191.69;;;6.26;100.00
44148;BME280;29810;55.848;37.368;2023-05-01T02:11:44;98178.25;;;6.15;100.00
44148;BME280;29810;55.848;37.368;2023-05-01T02:14:46;98174.41;;;6.02;100.00
44148;BME280;29810;55.848;37.368;2023-05-01T02:17:48;98184.50;;;6.09;100.00
44148;BME280;29810;55.848;37.368;2023-05-01T02:20:50;98193.44;;;6.01;100.00
44148;BME280;29810;55.848;37.368;2023-05-01T02:23:53;98185.00;;;6.19;100.00
44148;BME280;29810;55.848;37.368;2023-05-01T02:26:59;98184.06;;;6.22;100.00
44148;BME280;29810;55.848;37.368;2023-05-01T02:30:03;98184.00;;;6.23;100.00
44148;BME280;29810;55.848;37.368;2023-05-01T02:33:06;98188.81;;;6.34;100.00
44148;BME280;29810;55.848;37.368;2023-05-01T02:36:07;98175.19;;;6.29;100.00
44148;BME280;29810;55.848;37.368;2023-05-01T02:39:08;98180.78;;;6.17;100.00
44148;BME280;29810;55.848;37.368;2023-05-01T02:42:10;98179.34;;;6.09;100.00
44148;BME280;29810;55.848;37.368;2023-05-01T02:45:16;98191.25;;;6.13;100.00
44148;BME280;29810;55.848;37.368;2023-05-01T02:48:24;98203.19;;;6.18;100.00
44148;BME280;29810;55.848;37.368;2023-05-01T02:51:26;98218.41;;;6.27;100.00
44148;BME280;29810;55.848;37.368;2023-05-01T02:54:28;98232.97;;;6.55;100.00
44148;BME280;29810;55.848;37.368;2023-05-01T02:57:32;98222.66;;;6.77;100.00
44148;BME280;29810;55.848;37.368;2023-05-01T03:00:33;98226.69;;;6.84;100.00
44148;BME280;29810;55.848;37.368;2023-05-01T03:03:35;98239.09;;;6.76;100.00
44148;BME280;29810;55.848;37.368;2023-05-01T03:06:37;98238.31;;;6.74;100.00
44148;BME280;29810;55.848;37.368;2023-05-01T03:09:39;98246.34;;;6.66;100.00
44148;BME280;29810;55.848;37.368;2023-05-01T03:12:41;98245.59;;;6.62;100.00
44148;BME280;29810;55.848;37.368;2023-05-01T03:15:43;98244.34;;;6.74;100.00
44148;BME280;29810;55.848;37.368;2023-05-01T03:18:44;98244.00;;;6.84;100.00
44148;BME280;29810;55.848;37.368;2023-05-01T03:21:46;98241.56;;;6.79;100.00
44148;BME280;29810;55.848;37.368;2023-05-01T03:24:47;98232.06;;;7.02;100.00
44148;BME280;29810;55.848;37.368;2023-05-01T03:27:48;98226.25;;;6.96;100.00
44148;BME280;29810;55.848;37.368;2023-05-01T03:30:50;98221.84;;;7.21;100.00
44148;BME280;29810;55.848;37.368;2023-05-01T03:33:54;98220.38;;;7.37;100.00
44148;BME280;29810;55.848;37.368;2023-05-01T03:36:55;98208.44;;;7.54;100.00
44148;BME280;29810;55.848;37.368;2023-05-01T03:39:58;98214.75;;;7.48;100.00
44148;BME280;29810;55.848;37.368;2023-05-01T03:43:03;98225.91;;;7.71;100.00
44148;BME280;29810;55.848;37.368;2023-05-01T03:46:05;98229.16;;;7.76;100.00
44148;BME280;29810;55.848;37.368;2023-05-01T03:49:06;98222.94;;;7.59;100.00
44148;BME280;29810;55.848;37.368;2023-05-01T03:52:09;98225.25;;;7.66;100.00
44148;BME280;29810;55.848;37.368;2023-05-01T03:55:11;98227.16;;;7.62;100.00
44148;BME280;29810;55.848;37.368;2023-05-01T03:58:13;98228.78;;;7.65;100.00
44148;BME280;29810;55.848;37.368;2023-05-01T04:01:15;98240.22;;;7.59;100.00
44148;BME280;29810;55.848;37.368;2023-05-01T04:04:16;98246.81;;;7.68;100.00
44148;BME280;29810;55.848;37.368;2023-05-01T04:07:18;98241.75;;;7.65;100.00
44148;BME280;29810;55.848;37.368;2023-05-01T04:10:20;98234.97;;;7.60;100.00
44148;BME280;29810;55.848;37.368;2023-05-01T04:13:22;98222.94;;;7.80;100.00
44148;BME280;29810;55.848;37.368;2023-05-01T04:16:24;98227.19;;;8.03;100.00
44148;BME280;29810;55.848;37.368;2023-05-01T04:19:26;98227.75;;;8.10;100.00
44148;BME280;29810;55.848;37.368;2023-05-01T04:22:28;98236.66;;;8.25;100.00
44148;BME280;29810;55.848;37.368;2023-05-01T04:25:30;98240.87;;;8.27;100.00
44148;BME280;29810;55.848;37.368;2023-05-01T04:28:33;98243.66;;;8.23;100.00
44148;BME280;29810;55.848;37.368;2023-05-01T04:31:34;98240.87;;;8.27;100.00
44148;BME280;29810;55.848;37.368;2023-05-01T04:34:36;98243.47;;;8.27;100.00
44148;BME280;29810;55.848;37.368;2023-05-01T04:37:37;98243.34;;;8.10;100.00
44148;BME280;29810;55.848;37.368;2023-05-01T04:40:39;98239.34;;;8.23;100.00
44148;BME280;29810;55.848;37.368;2023-05-01T04:43:40;98246.59;;;8.36;100.00
44148;BME280;29810;55.848;37.368;2023-05-01T04:46:42;98242.94;;;8.40;100.00
44148;BME280;29810;55.848;37.368;2023-05-01T04:49:43;98260.12;;;8.42;100.00
44148;BME280;29810;55.848;37.368;2023-05-01T04:52:45;98260.34;;;8.17;100.00
44148;BME280;29810;55.848;37.368;2023-05-01T04:55:47;98266.69;;;8.10;100.00
44148;BME280;29810;55.848;37.368;2023-05-01T04:58:49;98262.16;;;8.15;100.00
44148;BME280;29810;55.848;37.368;2023-05-01T05:01:51;98266.28;;;8.21;100.00
44148;BME280;29810;55.848;37.368;2023-05-01T05:04:52;98262.41;;;8.29;100.00
44148;BME280;29810;55.848;37.368;2023-05-01T05:07:54;98261.97;;;8.40;100.00
44148;BME280;29810;55.848;37.368;2023-05-01T05:10:59;98267.88;;;8.44;100.00
44148;BME280;29810;55.848;37.368;2023-05-01T05:14:01;98269.06;;;8.57;100.00
44148;BME280;29810;55.848;37.368;2023-05-01T05:17:03;98268.78;;;8.64;100.00
44148;BME280;29810;55.848;37.368;2023-05-01T05:20:04;98264.56;;;8.61;100.00
44148;BME280;29810;55.848;37.368;2023-05-01T05:23:06;98257.69;;;8.60;100.00
44148;BME280;29810;55.848;37.368;2023-05-01T05:26:08;98255.44;;;8.52;100.00
44148;BME280;29810;55.848;37.368;2023-05-01T05:29:09;98264.00;;;8.54;100.00
44148;BME280;29810;55.848;37.368;2023-05-01T05:32:10;98279.56;;;8.75;100.00
44148;BME280;29810;55.848;37.368;2023-05-01T05:35:12;98283.12;;;8.72;100.00
44148;BME280;29810;55.848;37.368;2023-05-01T05:38:13;98274.50;;;8.72;100.00
44148;BME280;29810;55.848;37.368;2023-05-01T05:41:16;98270.37;;;8.87;100.00
44148;BME280;29810;55.848;37.368;2023-05-01T05:44:18;98268.06;;;9.00;100.00
44148;BME280;29810;55.848;37.368;2023-05-01T05:47:20;98259.19;;;9.23;100.00
44148;BME280;29810;55.848;37.368;2023-05-01T05:50:22;98264.28;;;9.43;100.00
44148;BME280;29810;55.848;37.368;2023-05-01T05:53:23;98264.50;;;9.58;100.00
44148;BME280;29810;55.848;37.368;2023-05-01T05:56:25;98269.44;;;9.45;97.94
44148;BME280;29810;55.848;37.368;2023-05-01T05:59:26;98262.56;;;9.44;97.31
44148;BME280;29810;55.848;37.368;2023-05-01T06:02:28;98275.81;;;9.57;97.66
44148;BME280;29810;55.848;37.368;2023-05-01T06:05:30;98286.94;;;9.60;96.13
44148;BME280;29810;55.848;37.368;2023-05-01T06:08:32;98298.88;;;9.65;95.23
44148;BME280;29810;55.848;37.368;2023-05-01T06:11:35;98313.91;;;9.77;97.37
44148;BME280;29810;55.848;37.368;2023-05-01T06:14:37;98301.53;;;9.63;94.01
44148;BME280;29810;55.848;37.368;2023-05-01T06:17:38;98304.56;;;9.90;96.55
44148;BME280;29810;55.848;37.368;2023-05-01T06:20:41;98308.16;;;9.88;90.70
44148;BME280;29810;55.848;37.368;2023-05-01T06:23:43;98307.66;;;9.99;92.37
44148;BME280;29810;55.848;37.368;2023-05-01T06:26:45;98307.59;;;10.18;92.58
44148;BME280;29810;55.848;37.368;2023-05-01T06:29:46;98306.00;;;10.33;94.53
44148;BME280;29810;55.848;37.368;2023-05-01T06:32:47;98312.91;;;10.51;93.05
44148;BME280;29810;55.848;37.368;2023-05-01T06:35:49;98319.78;;;10.70;95.73
44148;BME280;29810;55.848;37.368;2023-05-01T06:38:50;98313.44;;;10.91;95.16
44148;BME280;29810;55.848;37.368;2023-05-01T06:41:52;98320.81;;;10.83;93.46
44148;BME280;29810;55.848;37.368;2023-05-01T06:44:58;98323.09;;;10.89;95.59
44148;BME280;29810;55.848;37.368;2023-05-01T06:47:59;98334.09;;;10.79;91.74
44148;BME280;29810;55.848;37.368;2023-05-01T06:51:00;98331.56;;;11.10;92.93
44148;BME280;29810;55.848;37.368;2023-05-01T06:54:02;98338.44;;;11.45;94.77
44148;BME280;29810;55.848;37.368;2023-05-01T06:57:03;98336.81;;;11.58;93.48
44148;BME280;29810;55.848;37.368;2023-05-01T07:00:05;98340.69;;;11.51;87.13
44148;BME280;29810;55.848;37.368;2023-05-01T07:03:06;98333.53;;;11.55;86.75
44148;BME280;29810;55.848;37.368;2023-05-01T07:06:08;98332.44;;;11.91;88.23
44148;BME280;29810;55.848;37.368;2023-05-01T07:09:09;98340.66;;;12.15;84.40
44148;BME280;29810;55.848;37.368;2023-05-01T07:12:11;98343.84;;;12.20;83.80
44148;BME280;29810;55.848;37.368;2023-05-01T07:15:12;98353.84;;;12.44;78.23
44148;BME280;29810;55.848;37.368;2023-05-01T07:18:16;98346.91;;;12.43;74.92
44148;BME280;29810;55.848;37.368;2023-05-01T07:21:17;98350.72;;;12.68;74.00
44148;BME280;29810;55.848;37.368;2023-05-01T07:24:18;98342.31;;;13.20;72.73
44148;BME280;29810;55.848;37.368;2023-05-01T07:27:21;98350.59;;;13.70;73.04
44148;BME280;29810;55.848;37.368;2023-05-01T07:30:22;98340.44;;;13.93;81.41
44148;BME280;29810;55.848;37.368;2023-05-01T07:33:24;98349.63;;;14.13;76.87
44148;BME280;29810;55.848;37.368;2023-05-01T07:36:26;98337.44;;;14.52;81.68
44148;BME280;29810;55.848;37.368;2023-05-01T07:39:28;98346.22;;;14.51;84.37
44148;BME280;29810;55.848;37.368;2023-05-01T07:42:29;98357.44;;;14.00;66.92
44148;BME280;29810;55.848;37.368;2023-05-01T07:45:30;98362.22;;;13.52;64.58
44148;BME280;29810;55.848;37.368;2023-05-01T07:48:32;98377.28;;;13.48;66.80
44148;BME280;29810;55.848;37.368;2023-05-01T07:51:33;98377.06;;;13.80;70.14
44148;BME280;29810;55.848;37.368;2023-05-01T07:54:34;98378.16;;;12.75;68.46
44148;BME280;29810;55.848;37.368;2023-05-01T07:57:35;98377.25;;;12.76;73.67
44148;BME280;29810;55.848;37.368;2023-05-01T08:00:37;98380.22;;;12.70;71.36
44148;BME280;29810;55.848;37.368;2023-05-01T08:03:38;98392.47;;;12.69;65.84
44148;BME280;29810;55.848;37.368;2023-05-01T08:06:39;98400.91;;;12.44;67.34
44148;BME280;29810;55.848;37.368;2023-05-01T08:09:41;98404.78;;;12.37;77.05
44148;BME280;29810;55.848;37.368;2023-05-01T08:12:42;98420.41;;;12.06;73.34
44148;BME280;29810;55.848;37.368;2023-05-01T08:15:46;98428.88;;;11.78;66.76
44148;BME280;29810;55.848;37.368;2023-05-01T08:18:47;98431.59;;;11.76;70.92
44148;BME280;29810;55.848;37.368;2023-05-01T08:21:49;98448.25;;;11.74;74.24
44148;BME280;29810;55.848;37.368;2023-05-01T08:24:50;98444.28;;;11.67;73.50
44148;BME280;29810;55.848;37.368;2023-05-01T08:27:51;98454.50;;;11.71;73.07
44148;BME280;29810;55.848;37.368;2023-05-01T08:30:53;98448.44;;;11.87;70.57
44148;BME280;29810;55.848;37.368;2023-05-01T08:33:54;98444.25;;;12.00;64.62
44148;BME280;29810;55.848;37.368;2023-05-01T08:36:55;98450.91;;;12.06;66.29
44148;BME280;29810;55.848;37.368;2023-05-01T08:39:57;98445.56;;;11.91;63.89
44148;BME280;29810;55.848;37.368;2023-05-01T08:42:59;98455.72;;;11.64;65.79
44148;BME280;29810;55.848;37.368;2023-05-01T08:46:01;98463.44;;;11.83;68.86
44148;BME280;29810;55.848;37.368;2023-05-01T08:49:07;98471.84;;;11.72;70.15
44148;BME280;29810;55.848;37.368;2023-05-01T08:52:10;98472.66;;;11.23;65.96
44148;BME280;29810;55.848;37.368;2023-05-01T08:55:13;98490.19;;;11.71;66.59
44148;BME280;29810;55.848;37.368;2023-05-01T08:58:16;98485.06;;;12.03;64.58
44148;BME280;29810;55.848;37.368;2023-05-01T09:01:17;98491.22;;;12.34;66.26
44148;BME280;29810;55.848;37.368;2023-05-01T09:04:20;98472.72;;;12.83;68.25
44148;BME280;29810;55.848;37.368;2023-05-01T09:07:22;98485.25;;;13.23;60.37
44148;BME280;29810;55.848;37.368;2023-05-01T09:10:23;98470.25;;;13.41;57.15
44148;BME280;29810;55.848;37.368;2023-05-01T09:13:24;98489.31;;;13.86;66.01
44148;BME280;29810;55.848;37.368;2023-05-01T09:16:26;98485.59;;;13.76;59.29
44148;BME280;29810;55.848;37.368;2023-05-01T09:19:28;98498.56;;;12.73;62.48
44148;BME280;29810;55.848;37.368;2023-05-01T09:22:33;98500.06;;;12.47;61.00
44148;BME280;29810;55.848;37.368;2023-05-01T09:25:34;98505.59;;;12.57;62.28
44148;BME280;29810;55.848;37.368;2023-05-01T09:28:43;98498.53;;;12.89;66.35
44148;BME280;29810;55.848;37.368;2023-05-01T09:31:47;98505.53;;;12.89;60.88
44148;BME280;29810;55.848;37.368;2023-05-01T09:34:52;98501.66;;;12.80;61.36
44148;BME280;29810;55.848;37.368;2023-05-01T09:37:55;98509.44;;;12.82;60.11
44148;BME280;29810;55.848;37.368;2023-05-01T09:41:03;98508.84;;;12.92;63.52
44148;BME280;29810;55.848;37.368;2023-05-01T09:44:04;98503.94;;;12.86;62.91
44148;BME280;29810;55.848;37.368;2023-05-01T09:47:20;98520.56;;;12.85;65.84
44148;BME280;29810;55.848;37.368;2023-05-01T09:50:28;98536.53;;;12.65;64.97
44148;BME280;29810;55.848;37.368;2023-05-01T09:53:37;98540.50;;;12.08;59.57
44148;BME280;29810;55.848;37.368;2023-05-01T09:56:45;98537.16;;;11.55;60.73
44148;BME280;29810;55.848;37.368;2023-05-01T10:00:00;98531.44;;;11.13;63.36
44148;BME280;29810;55.848;37.368;2023-05-01T10:03:11;98548.22;;;11.25;64.27
44148;BME280;29810;55.848;37.368;2023-05-01T10:06:24;98545.50;;;10.74;64.05
44148;BME280;29810;55.848;37.368;2023-05-01T10:09:27;98551.25;;;10.81;65.03
44148;BME280;29810;55.848;37.368;2023-05-01T10:12:29;98580.47;;;10.32;65.18
44148;BME280;29810;55.848;37.368;2023-05-01T10:15:36;98582.59;;;10.23;65.56
44148;BME280;29810;55.848;37.368;2023-05-01T10:18:37;98598.19;;;10.04;65.97
44148;BME280;29810;55.848;37.368;2023-05-01T10:21:39;98587.56;;;9.49;67.03
44148;BME280;29810;55.848;37.368;2023-05-01T10:24:41;98577.97;;;8.65;69.40
44148;BME280;29810;55.848;37.368;2023-05-01T10:27:43;98626.78;;;8.79;70.11
44148;BME280;29810;55.848;37.368;2023-05-01T10:30:44;98622.06;;;8.67;70.71
44148;BME280;29810;55.848;37.368;2023-05-01T10:33:45;98628.72;;;8.74;70.01
44148;BME280;29810;55.848;37.368;2023-05-01T10:36:49;98618.28;;;8.52;70.82
44148;BME280;29810;55.848;37.368;2023-05-01T10:39:54;98630.50;;;8.50;71.21
44148;BME280;29810;55.848;37.368;2023-05-01T10:43:11;98637.41;;;8.25;72.19
44148;BME280;29810;55.848;37.368;2023-05-01T10:49:16;98650.88;;;8.13;72.44
44148;BME280;29810;55.848;37.368;2023-05-01T10:52:18;98656.41;;;8.02;72.79
44148;BME280;29810;55.848;37.368;2023-05-01T10:55:32;98671.62;;;8.13;71.68
44148;BME280;29810;55.848;37.368;2023-05-01T11:01:42;98686.94;;;6.58;79.57
44148;BME280;29810;55.848;37.368;2023-05-01T11:04:48;98685.28;;;6.56;80.67
44148;BME280;29810;55.848;37.368;2023-05-01T11:08:27;98704.19;;;6.28;80.76
44148;BME280;29810;55.848;37.368;2023-05-01T11:14:23;98706.78;;;6.89;79.21
44148;BME280;29810;55.848;37.368;2023-05-01T11:20:45;98732.81;;;6.55;78.94
44148;BME280;29810;55.848;37.368;2023-05-01T11:23:47;98715.22;;;6.66;79.36
44148;BME280;29810;55.848;37.368;2023-05-01T11:26:48;98720.53;;;6.61;78.68
44148;BME280;29810;55.848;37.368;2023-05-01T11:29:49;98721.97;;;6.72;78.37
44148;BME280;29810;55.848;37.368;2023-05-01T11:32:51;98741.00;;;6.71;79.02
44148;BME280;29810;55.848;37.368;2023-05-01T11:35:56;98736.25;;;6.55;79.56
44148;BME280;29810;55.848;37.368;2023-05-01T11:38:58;98740.62;;;6.53;79.90
44148;BME280;29810;55.848;37.368;2023-05-01T11:42:10;98739.03;;;6.79;80.18
44148;BME280;29810;55.848;37.368;2023-05-01T11:45:11;98749.72;;;6.98;79.05
44148;BME280;29810;55.848;37.368;2023-05-01T11:48:13;98768.59;;;7.02;78.31
44148;BME280;29810;55.848;37.368;2023-05-01T11:51:18;98766.03;;;6.39;80.72
44148;BME280;29810;55.848;37.368;2023-05-01T11:54:19;98776.69;;;5.92;83.83
44148;BME280;29810;55.848;37.368;2023-05-01T11:57:33;98774.72;;;6.03;83.56
44148;BME280;29810;55.848;37.368;2023-05-01T12:00:54;98788.28;;;5.77;83.47
44148;BME280;29810;55.848;37.368;2023-05-01T12:03:57;98790.66;;;5.86;84.58
44148;BME280;29810;55.848;37.368;2023-05-01T12:06:59;98794.47;;;5.71;84.18
44148;BME280;29810;55.848;37.368;2023-05-01T12:10:03;98798.50;;;5.83;83.49
44148;BME280;29810;55.848;37.368;2023-05-01T12:13:06;98794.84;;;5.90;83.34
44148;BME280;29810;55.848;37.368;2023-05-01T12:16:09;98802.28;;;6.06;83.70
44148;BME280;29810;55.848;37.368;2023-05-01T12:19:12;98804.59;;;6.17;84.12
44148;BME280;29810;55.848;37.368;2023-05-01T12:22:13;98808.03;;;6.17;84.37
44148;BME280;29810;55.848;37.368;2023-05-01T12:25:15;98804.16;;;6.34;83.55
44148;BME280;29810;55.848;37.368;2023-05-01T12:28:19;98817.09;;;6.34;83.51
44148;BME280;29810;55.848;37.368;2023-05-01T12:31:21;98814.09;;;6.49;83.54
44148;BME280;29810;55.848;37.368;2023-05-01T12:34:28;98808.62;;;6.61;82.93
44148;BME280;29810;55.848;37.368;2023-05-01T12:37:30;98823.88;;;6.39;84.04
44148;BME280;29810;55.848;37.368;2023-05-01T12:40:33;98821.94;;;6.47;84.16
44148;BME280;29810;55.848;37.368;2023-05-01T12:43:35;98828.25;;;6.69;82.68
44148;BME280;29810;55.848;37.368;2023-05-01T12:46:37;98827.13;;;6.79;82.69
44148;BME280;29810;55.848;37.368;2023-05-01T12:49:38;98832.06;;;6.88;83.09
44148;BME280;29810;55.848;37.368;2023-05-01T12:52:40;98827.78;;;7.17;82.54
44148;BME280;29810;55.848;37.368;2023-05-01T12:55:45;98831.22;;;7.48;81.00
44148;BME280;29810;55.848;37.368;2023-05-01T12:58:47;98845.09;;;7.46;79.71
44148;BME280;29810;55.848;37.368;2023-05-01T13:02:02;98848.00;;;7.64;79.60
44148;BME280;29810;55.848;37.368;2023-05-01T13:05:04;98850.97;;;7.80;79.48
44148;BME280;29810;55.848;37.368;2023-05-01T13:08:06;98848.25;;;7.26;76.78
44148;BME280;29810;55.848;37.368;2023-05-01T13:11:14;98843.84;;;7.58;79.08
44148;BME280;29810;55.848;37.368;2023-05-01T13:14:16;98862.03;;;7.87;76.85
44148;BME280;29810;55.848;37.368;2023-05-01T13:17:30;98852.13;;;7.98;75.61
44148;BME280;29810;55.848;37.368;2023-05-01T13:20:38;98856.22;;;8.32;76.21
44148;BME280;29810;55.848;37.368;2023-05-01T13:23:39;98857.00;;;8.61;74.13
44148;BME280;29810;55.848;37.368;2023-05-01T13:26:40;98859.38;;;8.15;72.79
44148;BME280;29810;55.848;37.368;2023-05-01T13:29:42;98863.28;;;8.55;73.81
44148;BME280;29810;55.848;37.368;2023-05-01T13:32:50;98863.16;;;8.58;72.42
44148;BME280;29810;55.848;37.368;2023-05-01T13:35:52;98868.13;;;8.39;71.58
44148;BME280;29810;55.848;37.368;2023-05-01T13:38:54;98871.81;;;8.32;70.66
44148;BME280;29810;55.848;37.368;2023-05-01T13:41:56;98868.34;;;8.06;71.06
44148;BME280;29810;55.848;37.368;2023-05-01T13:44:57;98863.28;;;8.28;70.79
44148;BME280;29810;55.848;37.368;2023-05-01T13:47:59;98870.19;;;8.56;70.92
44148;BME280;29810;55.848;37.368;2023-05-01T13:51:01;98882.66;;;8.72;68.33
44148;BME280;29810;55.848;37.368;2023-05-01T13:54:03;98853.72;;;8.02;68.60
44148;BME280;29810;55.848;37.368;2023-05-01T13:57:04;98894.69;;;8.21;68.54
44148;BME280;29810;55.848;37.368;2023-05-01T14:00:06;98902.50;;;8.21;68.85
44148;BME280;29810;55.848;37.368;2023-05-01T14:03:13;98905.41;;;8.10;69.13
44148;BME280;29810;55.848;37.368;2023-05-01T14:06:17;98917.72;;;7.75;70.36
44148;BME280;29810;55.848;37.368;2023-05-01T14:09:18;98914.19;;;7.49;71.65
44148;BME280;29810;55.848;37.368;2023-05-01T14:12:23;98941.09;;;7.75;69.87
44148;BME280;29810;55.848;37.368;2023-05-01T14:15:26;98920.38;;;7.43;68.78
44148;BME280;29810;55.848;37.368;2023-05-01T14:18:28;98916.00;;;7.45;68.02
44148;BME280;29810;55.848;37.368;2023-05-01T14:21:29;98934.28;;;7.41;65.49
44148;BME280;29810;55.848;37.368;2023-05-01T14:24:39;98928.53;;;7.31;66.88
44148;BME280;29810;55.848;37.368;2023-05-01T14:27:40;98925.97;;;7.29;65.91
44148;BME280;29810;55.848;37.368;2023-05-01T14:30:42;98931.28;;;7.25;66.66
44148;BME280;29810;55.848;37.368;2023-05-01T14:33:43;98936.25;;;7.33;65.69
44148;BME280;29810;55.848;37.368;2023-05-01T14:36:45;98929.75;;;7.49;65.38
44148;BME280;29810;55.848;37.368;2023-05-01T14:39:46;98932.25;;;7.52;65.35
44148;BME280;29810;55.848;37.368;2023-05-01T14:42:47;98929.31;;;7.65;65.23
44148;BME280;29810;55.848;37.368;2023-05-01T14:45:49;98940.34;;;7.71;64.34
44148;BME280;29810;55.848;37.368;2023-05-01T14:48:50;98934.87;;;7.51;64.25
44148;BME280;29810;55.848;37.368;2023-05-01T14:51:52;98938.59;;;7.42;64.15
44148;BME280;29810;55.848;37.368;2023-05-01T14:54:53;98939.94;;;7.25;65.21
44148;BME280;29810;55.848;37.368;2023-05-01T14:57:55;98943.00;;;7.38;65.68
44148;BME280;29810;55.848;37.368;2023-05-01T15:00:56;98945.25;;;7.51;65.18
44148;BME280;29810;55.848;37.368;2023-05-01T15:03:57;98947.31;;;7.39;65.17
44148;BME280;29810;55.848;37.368;2023-05-01T15:07:06;98957.41;;;7.49;65.35
44148;BME280;29810;55.848;37.368;2023-05-01T15:10:09;98951.34;;;7.50;65.42
44148;BME280;29810;55.848;37.368;2023-05-01T15:13:10;98953.53;;;7.34;65.57
44148;BME280;29810;55.848;37.368;2023-05-01T15:16:11;98970.38;;;7.50;65.80
44148;BME280;29810;55.848;37.368;2023-05-01T15:19:20;98969.84;;;7.37;65.03
44148;BME280;29810;55.848;37.368;2023-05-01T15:22:22;98974.59;;;7.21;67.02
44148;BME280;29810;55.848;37.368;2023-05-01T15:25:23;98989.66;;;7.07;67.21
44148;BME280;29810;55.848;37.368;2023-05-01T15:28:24;98992.34;;;7.04;67.43
44148;BME280;29810;55.848;37.368;2023-05-01T15:31:26;98999.81;;;7.16;67.55
44148;BME280;29810;55.848;37.368;2023-05-01T15:34:28;98997.56;;;7.35;67.32
44148;BME280;29810;55.848;37.368;2023-05-01T15:37:29;99006.06;;;7.40;67.28
44148;BME280;29810;55.848;37.368;2023-05-01T15:40:38;99003.31;;;7.46;67.29
44148;BME280;29810;55.848;37.368;2023-05-01T15:43:39;99018.91;;;7.12;68.39
44148;BME280;29810;55.848;37.368;2023-05-01T15:46:40;99019.41;;;7.26;68.24
44148;BME280;29810;55.848;37.368;2023-05-01T15:49:42;99020.47;;;7.19;68.71
44148;BME280;29810;55.848;37.368;2023-05-01T15:52:43;99017.53;;;7.32;68.55
44148;BME280;29810;55.848;37.368;2023-05-01T15:55:45;99024.56;;;7.28;68.77
44148;BME280;29810;55.848;37.368;2023-05-01T15:58:46;99032.34;;;7.28;68.46
44148;BME280;29810;55.848;37.368;2023-05-01T16:01:50;99039.03;;;7.02;69.81
44148;BME280;29810;55.848;37.368;2023-05-01T16:04:55;99039.66;;;7.12;69.44
44148;BME280;29810;55.848;37.368;2023-05-01T16:07:58;99046.88;;;6.99;70.04
44148;BME280;29810;55.848;37.368;2023-05-01T16:11:00;99051.13;;;7.03;70.34
44148;BME280;29810;55.848;37.368;2023-05-01T16:14:01;99048.69;;;6.97;71.00
44148;BME280;29810;55.848;37.368;2023-05-01T16:17:04;99052.06;;;7.01;70.83
44148;BME280;29810;55.848;37.368;2023-05-01T16:20:08;99057.88;;;7.09;71.00
44148;BME280;29810;55.848;37.368;2023-05-01T16:23:11;99061.31;;;7.11;70.72
44148;BME280;29810;55.848;37.368;2023-05-01T16:26:21;99070.47;;;7.24;70.41